sensor_id;sensor_type;location;lat;lon;timestamp;temperature;humidity
8633;DHT22;4354;49.832;10.746;2023-04-28T00:01:29;7.50;1.00
8633;DHT22;4354;49.832;10.746;2023-04-28T00:03:55;7.50;1.00
8633;DHT22;4354;49.832;10.746;2023-04-28T00:06:24;7.50;1.00
8633;DHT22;4354;49.832;10.746;2023-04-28T00:08:51;7.50;1.00
8633;DHT22;4354;49.832;10.746;2023-04-28T00:11:17;7.50;1.00
8633;DHT22;4354;49.832;10.746;2023-04-28T00:13:44;7.50;99.90
8633;DHT22;4354;49.832;10.746;2023-04-28T00:16:11;7.50;1.00
8633;DHT22;4354;49.832;10.746;2023-04-28T00:18:37;7.50;99.90
8633;DHT22;4354;49.832;10.746;2023-04-28T00:21:04;7.50;1.00
8633;DHT22;4354;49.832;10.746;2023-04-28T00:23:31;7.50;1.00
8633;DHT22;4354;49.832;10.746;2023-04-28T00:25:58;7.50;1.00
8633;DHT22;4354;49.832;10.746;2023-04-28T00:28:25;7.50;38.20
8633;DHT22;4354;49.832;10.746;2023-04-28T00:31:00;7.50;1.00
8633;DHT22;4354;49.832;10.746;2023-04-28T00:33:28;7.50;1.00
8633;DHT22;4354;49.832;10.746;2023-04-28T00:35:58;7.50;1.00
8633;DHT22;4354;49.832;10.746;2023-04-28T00:38:26;7.50;1.00
8633;DHT22;4354;49.832;10.746;2023-04-28T00:40:53;7.50;1.00
8633;DHT22;4354;49.832;10.746;2023-04-28T00:43:19;7.50;1.00
8633;DHT22;4354;49.832;10.746;2023-04-28T00:45:48;7.50;99.90
8633;DHT22;4354;49.832;10.746;2023-04-28T00:48:15;7.50;1.00
8633;DHT22;4354;49.832;10.746;2023-04-28T00:50:46;7.50;15.10
8633;DHT22;4354;49.832;10.746;2023-04-28T00:53:13;7.10;99.90
8633;DHT22;4354;49.832;10.746;2023-04-28T00:55:40;7.50;1.00
8633;DHT22;4354;49.832;10.746;2023-04-28T00:58:08;7.50;1.00
8633;DHT22;4354;49.832;10.746;2023-04-28T01:00:35;7.50;99.90
8633;DHT22;4354;49.832;10.746;2023-04-28T01:03:02;7.50;99.90
8633;DHT22;4354;49.832;10.746;2023-04-28T01:05:29;7.50;99.90
8633;DHT22;4354;49.832;10.746;2023-04-28T01:07:56;7.50;99.90
8633;DHT22;4354;49.832;10.746;2023-04-28T01:10:23;7.50;1.00
8633;DHT22;4354;49.832;10.746;2023-04-28T01:12:50;7.50;1.00
8633;DHT22;4354;49.832;10.746;2023-04-28T01:15:18;7.50;1.00
8633;DHT22;4354;49.832;10.746;2023-04-28T01:17:46;7.50;1.00
8633;DHT22;4354;49.832;10.746;2023-04-28T01:20:14;7.50;1.00
8633;DHT22;4354;49.832;10.746;2023-04-28T01:22:41;7.50;99.90
8633;DHT22;4354;49.832;10.746;2023-04-28T01:25:07;7.50;9.40
8633;DHT22;4354;49.832;10.746;2023-04-28T01:27:34;7.60;1.00
8633;DHT22;4354;49.832;10.746;2023-04-28T01:30:01;7.50;1.00
8633;DHT22;4354;49.832;10.746;2023-04-28T01:32:28;7.40;99.90
8633;DHT22;4354;49.832;10.746;2023-04-28T01:34:55;7.40;1.00
8633;DHT22;4354;49.832;10.746;2023-04-28T01:37:22;7.40;1.00
8633;DHT22;4354;49.832;10.746;2023-04-28T01:39:49;7.30;99.90
8633;DHT22;4354;49.832;10.746;2023-04-28T01:42:16;7.30;31.30
8633;DHT22;4354;49.832;10.746;2023-04-28T01:44:43;7.30;99.90
8633;DHT22;4354;49.832;10.746;2023-04-28T01:47:09;7.30;1.00
8633;DHT22;4354;49.832;10.746;2023-04-28T01:49:36;7.30;99.90
8633;DHT22;4354;49.832;10.746;2023-04-28T01:52:03;7.30;1.00
8633;DHT22;4354;49.832;10.746;2023-04-28T01:54:30;7.30;99.90
8633;DHT22;4354;49.832;10.746;2023-04-28T01:56:56;7.30;75.90
8633;DHT22;4354;49.832;10.746;2023-04-28T01:59:23;7.30;99.90
8633;DHT22;4354;49.832;10.746;2023-04-28T02:01:50;7.40;1.00
8633;DHT22;4354;49.832;10.746;2023-04-28T02:04:17;7.40;1.00
8633;DHT22;4354;49.832;10.746;2023-04-28T02:06:44;7.40;1.00
8633;DHT22;4354;49.832;10.746;2023-04-28T02:09:11;7.40;99.90
8633;DHT22;4354;49.832;10.746;2023-04-28T02:11:38;7.40;1.00
8633;DHT22;4354;49.832;10.746;2023-04-28T02:14:04;7.40;99.90
8633;DHT22;4354;49.832;10.746;2023-04-28T02:16:32;7.50;99.90
8633;DHT22;4354;49.832;10.746;2023-04-28T02:18:59;7.50;1.00
8633;DHT22;4354;49.832;10.746;2023-04-28T02:21:26;7.50;99.90
8633;DHT22;4354;49.832;10.746;2023-04-28T02:23:53;7.50;99.90
8633;DHT22;4354;49.832;10.746;2023-04-28T02:26:20;7.50;98.30
8633;DHT22;4354;49.832;10.746;2023-04-28T02:28:47;7.60;1.00
8633;DHT22;4354;49.832;10.746;2023-04-28T02:31:14;7.60;1.00
8633;DHT22;4354;49.832;10.746;2023-04-28T02:33:41;7.60;1.00
8633;DHT22;4354;49.832;10.746;2023-04-28T02:36:09;7.60;1.00
8633;DHT22;4354;49.832;10.746;2023-04-28T02:38:36;7.60;1.00
8633;DHT22;4354;49.832;10.746;2023-04-28T02:41:04;7.50;1.00
8633;DHT22;4354;49.832;10.746;2023-04-28T02:43:31;7.50;49.80
8633;DHT22;4354;49.832;10.746;2023-04-28T02:45:59;7.50;1.00
8633;DHT22;4354;49.832;10.746;2023-04-28T02:48:26;7.50;56.30
8633;DHT22;4354;49.832;10.746;2023-04-28T02:50:52;7.50;1.00
8633;DHT22;4354;49.832;10.746;2023-04-28T02:53:20;7.50;1.00
8633;DHT22;4354;49.832;10.746;2023-04-28T02:55:47;7.50;1.00
8633;DHT22;4354;49.832;10.746;2023-04-28T02:58:14;7.50;99.90
8633;DHT22;4354;49.832;10.746;2023-04-28T03:00:43;7.50;1.00
8633;DHT22;4354;49.832;10.746;2023-04-28T03:03:10;7.50;1.00
8633;DHT22;4354;49.832;10.746;2023-04-28T03:05:38;7.50;1.00
8633;DHT22;4354;49.832;10.746;2023-04-28T03:08:05;7.60;99.90
8633;DHT22;4354;49.832;10.746;2023-04-28T03:10:31;7.60;1.00
8633;DHT22;4354;49.832;10.746;2023-04-28T03:12:58;7.60;1.00
8633;DHT22;4354;49.832;10.746;2023-04-28T03:15:25;7.60;1.00
8633;DHT22;4354;49.832;10.746;2023-04-28T03:17:52;7.70;1.00
8633;DHT22;4354;49.832;10.746;2023-04-28T03:20:20;7.70;99.90
8633;DHT22;4354;49.832;10.746;2023-04-28T03:22:47;7.60;1.00
8633;DHT22;4354;49.832;10.746;2023-04-28T03:25:13;7.60;1.00
8633;DHT22;4354;49.832;10.746;2023-04-28T03:27:40;7.60;1.00
8633;DHT22;4354;49.832;10.746;2023-04-28T03:30:07;7.60;1.00
8633;DHT22;4354;49.832;10.746;2023-04-28T03:32:35;7.70;1.00
8633;DHT22;4354;49.832;10.746;2023-04-28T03:35:02;7.70;99.90
8633;DHT22;4354;49.832;10.746;2023-04-28T03:37:29;7.70;1.00
8633;DHT22;4354;49.832;10.746;2023-04-28T03:39:56;7.70;99.90
8633;DHT22;4354;49.832;10.746;2023-04-28T03:42:23;7.70;1.00
8633;DHT22;4354;49.832;10.746;2023-04-28T03:44:49;7.70;1.00
8633;DHT22;4354;49.832;10.746;2023-04-28T03:47:16;7.70;99.90
8633;DHT22;4354;49.832;10.746;2023-04-28T03:49:43;7.80;1.00
8633;DHT22;4354;49.832;10.746;2023-04-28T03:52:10;7.80;99.90
8633;DHT22;4354;49.832;10.746;2023-04-28T03:54:36;7.80;1.00
8633;DHT22;4354;49.832;10.746;2023-04-28T03:57:03;7.80;1.00
8633;DHT22;4354;49.832;10.746;2023-04-28T03:59:30;7.90;99.90
8633;DHT22;4354;49.832;10.746;2023-04-28T04:01:57;7.90;99.90
8633;DHT22;4354;49.832;10.746;2023-04-28T04:04:24;8.00;1.00
8633;DHT22;4354;49.832;10.746;2023-04-28T04:06:52;8.00;99.90
8633;DHT22;4354;49.832;10.746;2023-04-28T04:09:19;8.00;1.00
8633;DHT22;4354;49.832;10.746;2023-04-28T04:11:45;8.00;99.90
8633;DHT22;4354;49.832;10.746;2023-04-28T04:14:12;8.10;99.90
8633;DHT22;4354;49.832;10.746;2023-04-28T04:16:39;8.10;1.00
8633;DHT22;4354;49.832;10.746;2023-04-28T04:19:06;8.10;1.00
8633;DHT22;4354;49.832;10.746;2023-04-28T04:21:35;8.20;1.00
8633;DHT22;4354;49.832;10.746;2023-04-28T04:24:04;8.20;1.00
8633;DHT22;4354;49.832;10.746;2023-04-28T04:26:31;8.20;99.90
8633;DHT22;4354;49.832;10.746;2023-04-28T04:28:58;8.20;1.00
8633;DHT22;4354;49.832;10.746;2023-04-28T04:31:25;8.20;1.00
8633;DHT22;4354;49.832;10.746;2023-04-28T04:33:52;8.30;1.00
8633;DHT22;4354;49.832;10.746;2023-04-28T04:36:18;8.30;99.90
8633;DHT22;4354;49.832;10.746;2023-04-28T04:38:45;8.30;1.00
8633;DHT22;4354;49.832;10.746;2023-04-28T04:41:12;8.30;1.00
8633;DHT22;4354;49.832;10.746;2023-04-28T04:43:39;8.40;1.00
8633;DHT22;4354;49.832;10.746;2023-04-28T04:46:06;8.40;1.00
8633;DHT22;4354;49.832;10.746;2023-04-28T04:48:33;8.50;1.00
8633;DHT22;4354;49.832;10.746;2023-04-28T04:51:00;8.50;1.00
8633;DHT22;4354;49.832;10.746;2023-04-28T04:53:27;8.60;1.00
8633;DHT22;4354;49.832;10.746;2023-04-28T04:55:54;8.60;1.00
8633;DHT22;4354;49.832;10.746;2023-04-28T04:58:21;8.70;1.00
8633;DHT22;4354;49.832;10.746;2023-04-28T05:00:48;8.70;1.00
8633;DHT22;4354;49.832;10.746;2023-04-28T05:03:15;8.70;1.00
8633;DHT22;4354;49.832;10.746;2023-04-28T05:05:42;8.70;1.00
8633;DHT22;4354;49.832;10.746;2023-04-28T05:08:12;8.80;1.00
8633;DHT22;4354;49.832;10.746;2023-04-28T05:10:39;8.80;1.00
8633;DHT22;4354;49.832;10.746;2023-04-28T05:13:05;8.80;1.00
8633;DHT22;4354;49.832;10.746;2023-04-28T05:15:32;8.80;1.00
8633;DHT22;4354;49.832;10.746;2023-04-28T05:17:59;8.80;1.00
8633;DHT22;4354;49.832;10.746;2023-04-28T05:20:26;8.80;1.00
8633;DHT22;4354;49.832;10.746;2023-04-28T05:22:53;9.00;1.00
8633;DHT22;4354;49.832;10.746;2023-04-28T05:25:20;9.10;1.00
8633;DHT22;4354;49.832;10.746;2023-04-28T05:27:46;9.20;1.00
8633;DHT22;4354;49.832;10.746;2023-04-28T05:30:13;9.30;1.00
8633;DHT22;4354;49.832;10.746;2023-04-28T05:32:41;9.50;1.00
8633;DHT22;4354;49.832;10.746;2023-04-28T05:35:08;9.60;99.90
8633;DHT22;4354;49.832;10.746;2023-04-28T05:37:35;9.70;99.90
8633;DHT22;4354;49.832;10.746;2023-04-28T05:40:03;9.80;1.00
8633;DHT22;4354;49.832;10.746;2023-04-28T05:42:30;9.90;1.00
8633;DHT22;4354;49.832;10.746;2023-04-28T05:44:57;10.00;1.00
8633;DHT22;4354;49.832;10.746;2023-04-28T05:47:24;10.10;99.90
8633;DHT22;4354;49.832;10.746;2023-04-28T05:49:51;10.20;99.90
8633;DHT22;4354;49.832;10.746;2023-04-28T05:52:18;10.30;99.90
8633;DHT22;4354;49.832;10.746;2023-04-28T05:54:44;10.40;99.90
8633;DHT22;4354;49.832;10.746;2023-04-28T05:57:11;10.50;99.90
8633;DHT22;4354;49.832;10.746;2023-04-28T05:59:38;10.60;15.40
8633;DHT22;4354;49.832;10.746;2023-04-28T06:02:05;10.60;99.90
8633;DHT22;4354;49.832;10.746;2023-04-28T06:04:32;10.80;99.90
8633;DHT22;4354;49.832;10.746;2023-04-28T06:06:59;10.80;99.90
8633;DHT22;4354;49.832;10.746;2023-04-28T06:09:26;10.80;99.90
8633;DHT22;4354;49.832;10.746;2023-04-28T06:11:53;10.80;99.90
8633;DHT22;4354;49.832;10.746;2023-04-28T06:14:21;10.80;32.00
8633;DHT22;4354;49.832;10.746;2023-04-28T06:16:49;10.80;27.60
8633;DHT22;4354;49.832;10.746;2023-04-28T06:19:16;10.70;1.00
8633;DHT22;4354;49.832;10.746;2023-04-28T06:21:44;10.70;1.00
8633;DHT22;4354;49.832;10.746;2023-04-28T06:24:12;10.70;1.00
8633;DHT22;4354;49.832;10.746;2023-04-28T06:26:41;10.70;1.00
8633;DHT22;4354;49.832;10.746;2023-04-28T06:29:08;10.70;1.00
8633;DHT22;4354;49.832;10.746;2023-04-28T06:31:34;10.70;1.00
8633;DHT22;4354;49.832;10.746;2023-04-28T06:34:01;10.70;1.00
8633;DHT22;4354;49.832;10.746;2023-04-28T06:36:28;10.70;1.00
8633;DHT22;4354;49.832;10.746;2023-04-28T06:38:55;10.70;1.00
8633;DHT22;4354;49.832;10.746;2023-04-28T06:41:21;10.70;1.00
8633;DHT22;4354;49.832;10.746;2023-04-28T06:43:50;10.70;1.00
8633;DHT22;4354;49.832;10.746;2023-04-28T06:46:17;10.80;1.00
8633;DHT22;4354;49.832;10.746;2023-04-28T06:48:44;10.90;1.00
8633;DHT22;4354;49.832;10.746;2023-04-28T06:51:11;10.90;1.00
8633;DHT22;4354;49.832;10.746;2023-04-28T06:53:37;11.00;1.00
8633;DHT22;4354;49.832;10.746;2023-04-28T06:56:04;11.10;1.00
8633;DHT22;4354;49.832;10.746;2023-04-28T06:58:31;11.10;1.00
8633;DHT22;4354;49.832;10.746;2023-04-28T07:00:58;11.20;1.00
8633;DHT22;4354;49.832;10.746;2023-04-28T07:03:26;11.20;1.00
8633;DHT22;4354;49.832;10.746;2023-04-28T07:05:53;11.20;1.00
8633;DHT22;4354;49.832;10.746;2023-04-28T07:08:20;11.10;1.00
8633;DHT22;4354;49.832;10.746;2023-04-28T07:10:47;11.10;99.90
8633;DHT22;4354;49.832;10.746;2023-04-28T07:13:13;11.10;1.00
8633;DHT22;4354;49.832;10.746;2023-04-28T07:15:40;11.00;1.00
8633;DHT22;4354;49.832;10.746;2023-04-28T07:18:07;10.90;1.00
8633;DHT22;4354;49.832;10.746;2023-04-28T07:20:34;10.90;1.00
8633;DHT22;4354;49.832;10.746;2023-04-28T07:23:01;10.90;99.90
8633;DHT22;4354;49.832;10.746;2023-04-28T07:25:29;10.90;1.00
8633;DHT22;4354;49.832;10.746;2023-04-28T07:27:57;10.90;1.00
8633;DHT22;4354;49.832;10.746;2023-04-28T07:30:23;10.90;99.90
8633;DHT22;4354;49.832;10.746;2023-04-28T07:32:54;10.90;1.00
8633;DHT22;4354;49.832;10.746;2023-04-28T07:35:21;10.90;1.00
8633;DHT22;4354;49.832;10.746;2023-04-28T07:37:48;10.80;1.00
8633;DHT22;4354;49.832;10.746;2023-04-28T07:40:15;10.80;99.90
8633;DHT22;4354;49.832;10.746;2023-04-28T07:42:42;10.80;1.00
8633;DHT22;4354;49.832;10.746;2023-04-28T07:45:09;10.80;1.00
8633;DHT22;4354;49.832;10.746;2023-04-28T07:47:36;10.70;1.00
8633;DHT22;4354;49.832;10.746;2023-04-28T07:50:04;10.70;1.00
8633;DHT22;4354;49.832;10.746;2023-04-28T07:52:32;10.60;97.20
8633;DHT22;4354;49.832;10.746;2023-04-28T07:55:01;10.60;1.00
8633;DHT22;4354;49.832;10.746;2023-04-28T07:57:29;10.60;99.90
8633;DHT22;4354;49.832;10.746;2023-04-28T07:59:56;10.60;4.40
8633;DHT22;4354;49.832;10.746;2023-04-28T08:02:23;10.50;99.90
8633;DHT22;4354;49.832;10.746;2023-04-28T08:04:50;10.60;99.90
8633;DHT22;4354;49.832;10.746;2023-04-28T08:07:17;10.60;1.00
8633;DHT22;4354;49.832;10.746;2023-04-28T08:09:43;10.60;99.90
8633;DHT22;4354;49.832;10.746;2023-04-28T08:12:13;10.50;99.90
8633;DHT22;4354;49.832;10.746;2023-04-28T08:14:41;10.50;1.00
8633;DHT22;4354;49.832;10.746;2023-04-28T08:17:08;10.40;1.00
8633;DHT22;4354;49.832;10.746;2023-04-28T08:19:35;10.40;1.00
8633;DHT22;4354;49.832;10.746;2023-04-28T08:22:02;10.40;1.00
8633;DHT22;4354;49.832;10.746;2023-04-28T08:24:33;10.30;1.00
8633;DHT22;4354;49.832;10.746;2023-04-28T08:27:01;10.40;1.00
8633;DHT22;4354;49.832;10.746;2023-04-28T08:29:29;10.50;1.00
8633;DHT22;4354;49.832;10.746;2023-04-28T08:31:57;10.60;1.00
8633;DHT22;4354;49.832;10.746;2023-04-28T08:34:25;10.80;1.00
8633;DHT22;4354;49.832;10.746;2023-04-28T08:36:52;10.90;1.00
8633;DHT22;4354;49.832;10.746;2023-04-28T08:39:20;11.10;1.00
8633;DHT22;4354;49.832;10.746;2023-04-28T08:41:49;11.00;1.00
8633;DHT22;4354;49.832;10.746;2023-04-28T08:44:16;11.00;1.00
8633;DHT22;4354;49.832;10.746;2023-04-28T08:46:45;11.00;1.00
8633;DHT22;4354;49.832;10.746;2023-04-28T08:49:16;11.00;99.90
8633;DHT22;4354;49.832;10.746;2023-04-28T08:51:45;11.10;1.00
8633;DHT22;4354;49.832;10.746;2023-04-28T08:54:15;12.10;1.00
8633;DHT22;4354;49.832;10.746;2023-04-28T08:56:56;11.10;1.00
8633;DHT22;4354;49.832;10.746;2023-04-28T08:59:23;11.10;1.00
8633;DHT22;4354;49.832;10.746;2023-04-28T09:01:50;11.10;1.00
8633;DHT22;4354;49.832;10.746;2023-04-28T09:04:18;10.90;1.00
8633;DHT22;4354;49.832;10.746;2023-04-28T09:06:45;10.90;1.00
8633;DHT22;4354;49.832;10.746;2023-04-28T09:09:23;10.70;1.00
8633;DHT22;4354;49.832;10.746;2023-04-28T09:11:57;10.60;1.00
8633;DHT22;4354;49.832;10.746;2023-04-28T09:14:29;10.50;1.00
8633;DHT22;4354;49.832;10.746;2023-04-28T09:16:56;10.50;1.00
8633;DHT22;4354;49.832;10.746;2023-04-28T09:19:24;10.50;1.00
8633;DHT22;4354;49.832;10.746;2023-04-28T09:21:58;10.50;1.00
8633;DHT22;4354;49.832;10.746;2023-04-28T09:24:38;10.60;2.10
8633;DHT22;4354;49.832;10.746;2023-04-28T09:27:12;10.60;1.00
8633;DHT22;4354;49.832;10.746;2023-04-28T09:29:52;10.60;1.00
8633;DHT22;4354;49.832;10.746;2023-04-28T09:32:20;10.60;1.30
8633;DHT22;4354;49.832;10.746;2023-04-28T09:34:49;10.50;14.50
8633;DHT22;4354;49.832;10.746;2023-04-28T09:37:27;10.60;20.80
8633;DHT22;4354;49.832;10.746;2023-04-28T09:40:06;10.60;12.70
8633;DHT22;4354;49.832;10.746;2023-04-28T09:47:39;10.50;15.80
8633;DHT22;4354;49.832;10.746;2023-04-28T09:50:08;10.60;16.00
8633;DHT22;4354;49.832;10.746;2023-04-28T09:52:37;10.60;13.20
8633;DHT22;4354;49.832;10.746;2023-04-28T09:55:05;10.60;19.60
8633;DHT22;4354;49.832;10.746;2023-04-28T09:57:35;10.70;19.80
8633;DHT22;4354;49.832;10.746;2023-04-28T10:00:06;10.70;1.00
8633;DHT22;4354;49.832;10.746;2023-04-28T10:02:36;10.70;9.10
8633;DHT22;4354;49.832;10.746;2023-04-28T10:05:07;10.80;10.50
8633;DHT22;4354;49.832;10.746;2023-04-28T10:07:36;10.80;18.40
8633;DHT22;4354;49.832;10.746;2023-04-28T10:10:06;10.80;1.00
8633;DHT22;4354;49.832;10.746;2023-04-28T10:12:33;10.70;4.80
8633;DHT22;4354;49.832;10.746;2023-04-28T10:15:01;10.70;8.60
8633;DHT22;4354;49.832;10.746;2023-04-28T10:17:28;10.70;2.60
8633;DHT22;4354;49.832;10.746;2023-04-28T10:19:55;10.70;13.80
8633;DHT22;4354;49.832;10.746;2023-04-28T10:22:41;10.70;8.30
8633;DHT22;4354;49.832;10.746;2023-04-28T10:27:41;10.90;1.00
8633;DHT22;4354;49.832;10.746;2023-04-28T10:30:20;10.90;1.00
8633;DHT22;4354;49.832;10.746;2023-04-28T10:35:45;11.10;17.00
8633;DHT22;4354;49.832;10.746;2023-04-28T10:38:15;11.20;1.00
8633;DHT22;4354;49.832;10.746;2023-04-28T10:40:43;11.30;1.00
8633;DHT22;4354;49.832;10.746;2023-04-28T10:43:12;11.40;1.00
8633;DHT22;4354;49.832;10.746;2023-04-28T10:56:13;11.70;1.00
8633;DHT22;4354;49.832;10.746;2023-04-28T10:58:42;11.80;1.00
8633;DHT22;4354;49.832;10.746;2023-04-28T11:06:37;12.10;1.00
8633;DHT22;4354;49.832;10.746;2023-04-28T11:16:55;12.40;1.00
8633;DHT22;4354;49.832;10.746;2023-04-28T11:19:32;12.40;1.00
8633;DHT22;4354;49.832;10.746;2023-04-28T11:22:00;12.40;1.00
8633;DHT22;4354;49.832;10.746;2023-04-28T11:24:29;12.40;1.00
8633;DHT22;4354;49.832;10.746;2023-04-28T11:26:57;12.60;1.00
8633;DHT22;4354;49.832;10.746;2023-04-28T11:29:38;12.80;1.00
8633;DHT22;4354;49.832;10.746;2023-04-28T11:32:07;13.00;1.00
8633;DHT22;4354;49.832;10.746;2023-04-28T11:34:35;13.00;99.90
8633;DHT22;4354;49.832;10.746;2023-04-28T11:37:02;13.10;1.00
8633;DHT22;4354;49.832;10.746;2023-04-28T11:39:33;13.20;99.90
8633;DHT22;4354;49.832;10.746;2023-04-28T11:42:09;13.40;1.00
8633;DHT22;4354;49.832;10.746;2023-04-28T11:44:36;13.70;99.90
8633;DHT22;4354;49.832;10.746;2023-04-28T11:47:04;13.90;1.00
8633;DHT22;4354;49.832;10.746;2023-04-28T11:49:41;14.00;1.00
8633;DHT22;4354;49.832;10.746;2023-04-28T11:52:09;13.90;1.00
8633;DHT22;4354;49.832;10.746;2023-04-28T11:54:36;13.70;99.90
8633;DHT22;4354;49.832;10.746;2023-04-28T11:57:04;13.70;1.00
8633;DHT22;4354;49.832;10.746;2023-04-28T11:59:35;13.80;73.20
8633;DHT22;4354;49.832;10.746;2023-04-28T12:02:05;13.90;1.00
8633;DHT22;4354;49.832;10.746;2023-04-28T12:04:40;14.20;1.00
8633;DHT22;4354;49.832;10.746;2023-04-28T12:07:15;14.30;1.00
8633;DHT22;4354;49.832;10.746;2023-04-28T12:12:12;14.50;99.90
8633;DHT22;4354;49.832;10.746;2023-04-28T12:14:59;14.60;1.00
8633;DHT22;4354;49.832;10.746;2023-04-28T12:17:38;14.70;99.90
8633;DHT22;4354;49.832;10.746;2023-04-28T12:20:06;14.60;1.00
8633;DHT22;4354;49.832;10.746;2023-04-28T12:25:12;15.00;99.90
8633;DHT22;4354;49.832;10.746;2023-04-28T12:27:39;15.20;21.50
8633;DHT22;4354;49.832;10.746;2023-04-28T12:32:46;15.20;1.00
8633;DHT22;4354;49.832;10.746;2023-04-28T12:35:13;15.10;99.90
8633;DHT22;4354;49.832;10.746;2023-04-28T12:37:43;14.90;1.00
8633;DHT22;4354;49.832;10.746;2023-04-28T12:40:10;14.70;1.00
8633;DHT22;4354;49.832;10.746;2023-04-28T12:42:38;14.60;1.00
8633;DHT22;4354;49.832;10.746;2023-04-28T12:45:05;14.60;99.90
8633;DHT22;4354;49.832;10.746;2023-04-28T12:47:33;14.60;99.90
8633;DHT22;4354;49.832;10.746;2023-04-28T12:50:00;14.50;99.90
8633;DHT22;4354;49.832;10.746;2023-04-28T12:52:26;14.60;1.00
8633;DHT22;4354;49.832;10.746;2023-04-28T12:54:53;14.60;99.90
8633;DHT22;4354;49.832;10.746;2023-04-28T12:57:20;14.60;1.00
8633;DHT22;4354;49.832;10.746;2023-04-28T12:59:47;14.60;1.00
8633;DHT22;4354;49.832;10.746;2023-04-28T13:02:14;14.70;1.00
8633;DHT22;4354;49.832;10.746;2023-04-28T13:04:41;14.80;1.00
8633;DHT22;4354;49.832;10.746;2023-04-28T13:07:12;15.10;84.60
8633;DHT22;4354;49.832;10.746;2023-04-28T13:09:39;15.20;99.90
8633;DHT22;4354;49.832;10.746;2023-04-28T13:12:08;15.40;1.00
8633;DHT22;4354;49.832;10.746;2023-04-28T13:14:35;15.40;1.00
8633;DHT22;4354;49.832;10.746;2023-04-28T13:17:02;15.30;1.00
8633;DHT22;4354;49.832;10.746;2023-04-28T13:19:29;15.40;1.00
8633;DHT22;4354;49.832;10.746;2023-04-28T13:21:56;15.30;1.00
8633;DHT22;4354;49.832;10.746;2023-04-28T13:24:23;15.40;99.90
8633;DHT22;4354;49.832;10.746;2023-04-28T13:26:51;15.40;41.70
8633;DHT22;4354;49.832;10.746;2023-04-28T13:29:17;15.40;1.00
8633;DHT22;4354;49.832;10.746;2023-04-28T13:31:45;15.30;1.00
8633;DHT22;4354;49.832;10.746;2023-04-28T13:34:12;15.10;1.00
8633;DHT22;4354;49.832;10.746;2023-04-28T13:36:43;15.20;1.00
8633;DHT22;4354;49.832;10.746;2023-04-28T13:39:10;15.20;1.00
8633;DHT22;4354;49.832;10.746;2023-04-28T13:41:39;15.20;1.00
8633;DHT22;4354;49.832;10.746;2023-04-28T13:44:06;15.20;1.00
8633;DHT22;4354;49.832;10.746;2023-04-28T13:46:33;15.20;1.00
8633;DHT22;4354;49.832;10.746;2023-04-28T13:49:00;15.10;99.90
8633;DHT22;4354;49.832;10.746;2023-04-28T13:51:27;15.00;99.90
8633;DHT22;4354;49.832;10.746;2023-04-28T13:53:54;14.90;1.00
8633;DHT22;4354;49.832;10.746;2023-04-28T13:56:21;14.90;99.90
8633;DHT22;4354;49.832;10.746;2023-04-28T13:58:48;14.90;99.90
8633;DHT22;4354;49.832;10.746;2023-04-28T14:01:15;14.90;1.00
8633;DHT22;4354;49.832;10.746;2023-04-28T14:03:45;14.90;90.20
8633;DHT22;4354;49.832;10.746;2023-04-28T14:06:12;15.00;99.90
8633;DHT22;4354;49.832;10.746;2023-04-28T14:08:39;15.00;99.90
8633;DHT22;4354;49.832;10.746;2023-04-28T14:11:06;14.90;99.90
8633;DHT22;4354;49.832;10.746;2023-04-28T14:13:33;14.90;99.90
8633;DHT22;4354;49.832;10.746;2023-04-28T14:16:00;14.90;1.00
8633;DHT22;4354;49.832;10.746;2023-04-28T14:18:28;15.00;99.90
8633;DHT22;4354;49.832;10.746;2023-04-28T14:20:55;15.00;1.00
8633;DHT22;4354;49.832;10.746;2023-04-28T14:23:22;15.00;1.00
8633;DHT22;4354;49.832;10.746;2023-04-28T14:25:49;15.10;1.00
8633;DHT22;4354;49.832;10.746;2023-04-28T14:28:20;15.30;1.00
8633;DHT22;4354;49.832;10.746;2023-04-28T14:30:47;15.30;1.00
8633;DHT22;4354;49.832;10.746;2023-04-28T14:33:15;15.40;99.90
8633;DHT22;4354;49.832;10.746;2023-04-28T14:35:42;15.50;96.40
8633;DHT22;4354;49.832;10.746;2023-04-28T14:38:09;15.40;1.00
8633;DHT22;4354;49.832;10.746;2023-04-28T14:40:36;15.40;1.00
8633;DHT22;4354;49.832;10.746;2023-04-28T14:43:02;15.40;99.90
8633;DHT22;4354;49.832;10.746;2023-04-28T14:45:29;15.70;99.90
8633;DHT22;4354;49.832;10.746;2023-04-28T14:47:56;16.00;99.90
8633;DHT22;4354;49.832;10.746;2023-04-28T14:50:24;16.10;99.90
8633;DHT22;4354;49.832;10.746;2023-04-28T14:52:51;16.30;1.00
8633;DHT22;4354;49.832;10.746;2023-04-28T14:55:17;16.50;99.90
8633;DHT22;4354;49.832;10.746;2023-04-28T14:57:44;16.70;1.00
8633;DHT22;4354;49.832;10.746;2023-04-28T15:00:12;17.00;1.00
8633;DHT22;4354;49.832;10.746;2023-04-28T15:02:39;17.30;96.90
8633;DHT22;4354;49.832;10.746;2023-04-28T15:05:07;17.20;99.90
8633;DHT22;4354;49.832;10.746;2023-04-28T15:07:34;17.20;99.90
8633;DHT22;4354;49.832;10.746;2023-04-28T15:10:01;17.30;1.00
8633;DHT22;4354;49.832;10.746;2023-04-28T15:12:28;17.40;1.00
8633;DHT22;4354;49.832;10.746;2023-04-28T15:15:02;17.70;1.00
8633;DHT22;4354;49.832;10.746;2023-04-28T15:17:29;17.80;99.90
8633;DHT22;4354;49.832;10.746;2023-04-28T15:19:56;17.90;99.90
8633;DHT22;4354;49.832;10.746;2023-04-28T15:22:23;17.80;99.90
8633;DHT22;4354;49.832;10.746;2023-04-28T15:24:50;17.70;99.90
8633;DHT22;4354;49.832;10.746;2023-04-28T15:27:18;17.40;72.80
8633;DHT22;4354;49.832;10.746;2023-04-28T15:29:44;17.30;99.90
8633;DHT22;4354;49.832;10.746;2023-04-28T15:32:11;17.00;1.00
8633;DHT22;4354;49.832;10.746;2023-04-28T15:34:39;17.10;1.00
8633;DHT22;4354;49.832;10.746;2023-04-28T15:37:39;17.10;99.90
8633;DHT22;4354;49.832;10.746;2023-04-28T15:40:12;17.40;99.90
8633;DHT22;4354;49.832;10.746;2023-04-28T15:42:39;17.70;99.90
8633;DHT22;4354;49.832;10.746;2023-04-28T15:45:15;17.70;1.00
8633;DHT22;4354;49.832;10.746;2023-04-28T15:47:42;17.70;99.90
8633;DHT22;4354;49.832;10.746;2023-04-28T15:50:10;17.50;99.90
8633;DHT22;4354;49.832;10.746;2023-04-28T15:52:39;17.40;1.00
8633;DHT22;4354;49.832;10.746;2023-04-28T15:55:07;17.30;1.00
8633;DHT22;4354;49.832;10.746;2023-04-28T15:57:35;17.20;1.00
8633;DHT22;4354;49.832;10.746;2023-04-28T16:00:02;17.10;1.00
8633;DHT22;4354;49.832;10.746;2023-04-28T16:02:30;16.80;99.90
8633;DHT22;4354;49.832;10.746;2023-04-28T16:04:58;16.70;1.00
8633;DHT22;4354;49.832;10.746;2023-04-28T16:07:31;16.50;99.90
8633;DHT22;4354;49.832;10.746;2023-04-28T16:10:04;16.40;1.00
8633;DHT22;4354;49.832;10.746;2023-04-28T16:12:34;16.30;99.90
8633;DHT22;4354;49.832;10.746;2023-04-28T16:15:06;16.40;99.90
8633;DHT22;4354;49.832;10.746;2023-04-28T16:17:33;16.30;1.00
8633;DHT22;4354;49.832;10.746;2023-04-28T16:20:01;16.20;99.90
8633;DHT22;4354;49.832;10.746;2023-04-28T16:22:30;16.20;99.90
8633;DHT22;4354;49.832;10.746;2023-04-28T16:24:57;16.20;99.90
8633;DHT22;4354;49.832;10.746;2023-04-28T16:27:25;16.20;1.00
8633;DHT22;4354;49.832;10.746;2023-04-28T16:29:52;16.10;99.90
8633;DHT22;4354;49.832;10.746;2023-04-28T16:32:19;16.00;1.00
8633;DHT22;4354;49.832;10.746;2023-04-28T16:34:47;16.10;99.90
8633;DHT22;4354;49.832;10.746;2023-04-28T16:37:15;16.30;99.90
8633;DHT22;4354;49.832;10.746;2023-04-28T16:39:43;16.50;1.00
8633;DHT22;4354;49.832;10.746;2023-04-28T16:42:09;16.70;1.00
8633;DHT22;4354;49.832;10.746;2023-04-28T16:44:36;16.90;1.00
8633;DHT22;4354;49.832;10.746;2023-04-28T16:47:03;16.90;99.90
8633;DHT22;4354;49.832;10.746;2023-04-28T16:49:30;16.80;99.90